sensor_id;sensor_type;location;lat;lon;timestamp;pressure;altitude;pressure_sealevel;temperature;humidity
18022;BME280;9136;48.822;7.966;2022-10-15T00:00:49;99522.94;;;14.98;100.00
18022;BME280;9136;48.822;7.966;2022-10-15T00:03:40;99539.34;;;15.03;100.00
18022;BME280;9136;48.822;7.966;2022-10-15T00:06:28;99524.63;;;14.99;100.00
18022;BME280;9136;48.822;7.966;2022-10-15T00:09:16;99517.06;;;14.93;100.00
18022;BME280;9136;48.822;7.966;2022-10-15T00:12:04;99515.75;;;15.00;100.00
18022;BME280;9136;48.822;7.966;2022-10-15T00:14:53;99511.56;;;14.96;100.00
18022;BME280;9136;48.822;7.966;2022-10-15T00:17:41;99499.28;;;14.95;100.00
18022;BME280;9136;48.822;7.966;2022-10-15T00:20:30;99520.47;;;15.09;100.00
18022;BME280;9136;48.822;7.966;2022-10-15T00:23:18;99510.16;;;15.04;100.00
18022;BME280;9136;48.822;7.966;2022-10-15T00:26:08;99500.94;;;14.97;100.00
18022;BME280;9136;48.822;7.966;2022-10-15T00:28:58;99497.50;;;14.95;100.00
18022;BME280;9136;48.822;7.966;2022-10-15T00:31:46;99501.78;;;14.98;100.00
18022;BME280;9136;48.822;7.966;2022-10-15T00:34:34;99527.81;;;15.18;100.00
18022;BME280;9136;48.822;7.966;2022-10-15T00:37:23;99499.78;;;15.01;100.00
18022;BME280;9136;48.822;7.966;2022-10-15T00:40:11;99520.25;;;15.12;100.00
18022;BME280;9136;48.822;7.966;2022-10-15T00:43:00;99518.94;;;15.05;100.00
18022;BME280;9136;48.822;7.966;2022-10-15T00:45:48;99535.00;;;15.16;100.00
18022;BME280;9136;48.822;7.966;2022-10-15T00:48:35;99522.16;;;15.10;100.00
18022;BME280;9136;48.822;7.966;2022-10-15T00:51:27;99551.34;;;15.23;100.00
18022;BME280;9136;48.822;7.966;2022-10-15T00:54:18;99538.97;;;15.23;100.00
18022;BME280;9136;48.822;7.966;2022-10-15T00:57:08;99536.88;;;15.28;100.00
18022;BME280;9136;48.822;7.966;2022-10-15T01:00:00;99508.84;;;15.11;100.00
18022;BME280;9136;48.822;7.966;2022-10-15T01:02:48;99532.72;;;15.24;100.00
18022;BME280;9136;48.822;7.966;2022-10-15T01:05:37;99519.41;;;15.11;100.00
18022;BME280;9136;48.822;7.966;2022-10-15T01:08:26;99528.00;;;15.15;100.00
18022;BME280;9136;48.822;7.966;2022-10-15T01:11:29;99536.50;;;15.20;100.00
18022;BME280;9136;48.822;7.966;2022-10-15T01:14:33;99518.19;;;15.17;100.00
18022;BME280;9136;48.822;7.966;2022-10-15T01:17:30;99517.50;;;15.13;100.00
18022;BME280;9136;48.822;7.966;2022-10-15T01:20:36;99524.44;;;15.16;100.00
18022;BME280;9136;48.822;7.966;2022-10-15T01:24:00;99522.81;;;15.28;100.00
18022;BME280;9136;48.822;7.966;2022-10-15T01:27:23;99522.22;;;15.23;100.00
18022;BME280;9136;48.822;7.966;2022-10-15T01:30:23;99523.19;;;15.22;100.00
18022;BME280;9136;48.822;7.966;2022-10-15T01:33:23;99533.09;;;15.32;100.00
18022;BME280;9136;48.822;7.966;2022-10-15T01:36:17;99521.66;;;15.32;100.00
18022;BME280;9136;48.822;7.966;2022-10-15T01:39:11;99533.66;;;15.37;100.00
18022;BME280;9136;48.822;7.966;2022-10-15T01:42:02;99504.66;;;15.22;100.00
18022;BME280;9136;48.822;7.966;2022-10-15T01:44:55;99524.03;;;15.36;100.00
18022;BME280;9136;48.822;7.966;2022-10-15T01:47:48;99504.19;;;15.29;100.00
18022;BME280;9136;48.822;7.966;2022-10-15T01:50:41;99530.34;;;15.34;100.00
18022;BME280;9136;48.822;7.966;2022-10-15T01:53:32;99520.59;;;15.34;100.00
18022;BME280;9136;48.822;7.966;2022-10-15T01:56:22;99517.88;;;15.36;100.00
18022;BME280;9136;48.822;7.966;2022-10-15T01:59:11;99514.88;;;15.28;100.00
18022;BME280;9136;48.822;7.966;2022-10-15T02:01:59;99543.19;;;15.40;100.00
18022;BME280;9136;48.822;7.966;2022-10-15T02:04:48;99523.06;;;15.37;100.00
18022;BME280;9136;48.822;7.966;2022-10-15T02:07:42;99534.59;;;15.36;100.00
18022;BME280;9136;48.822;7.966;2022-10-15T02:10:39;99524.97;;;15.35;100.00
18022;BME280;9136;48.822;7.966;2022-10-15T02:13:34;99530.28;;;15.35;100.00
18022;BME280;9136;48.822;7.966;2022-10-15T02:16:30;99531.97;;;15.36;100.00
18022;BME280;9136;48.822;7.966;2022-10-15T02:19:29;99531.75;;;15.39;100.00
18022;BME280;9136;48.822;7.966;2022-10-15T02:22:23;99539.69;;;15.39;100.00
18022;BME280;9136;48.822;7.966;2022-10-15T02:25:15;99534.09;;;15.44;100.00
18022;BME280;9136;48.822;7.966;2022-10-15T02:28:05;99514.19;;;15.38;100.00
18022;BME280;9136;48.822;7.966;2022-10-15T02:30:55;99513.53;;;15.35;100.00
18022;BME280;9136;48.822;7.966;2022-10-15T02:33:45;99548.28;;;15.43;100.00
18022;BME280;9136;48.822;7.966;2022-10-15T02:36:34;99542.81;;;15.46;100.00
18022;BME280;9136;48.822;7.966;2022-10-15T02:39:25;99533.06;;;15.46;100.00
18022;BME280;9136;48.822;7.966;2022-10-15T02:42:13;99539.50;;;15.42;100.00
18022;BME280;9136;48.822;7.966;2022-10-15T02:45:03;99543.28;;;15.38;100.00
18022;BME280;9136;48.822;7.966;2022-10-15T02:47:51;99545.56;;;15.44;100.00
18022;BME280;9136;48.822;7.966;2022-10-15T02:50:38;99537.63;;;15.44;100.00
18022;BME280;9136;48.822;7.966;2022-10-15T02:53:26;99552.81;;;15.55;100.00
18022;BME280;9136;48.822;7.966;2022-10-15T02:56:15;99551.50;;;15.48;100.00
18022;BME280;9136;48.822;7.966;2022-10-15T02:59:03;99531.84;;;15.38;100.00
18022;BME280;9136;48.822;7.966;2022-10-15T03:01:51;99555.84;;;15.49;100.00
18022;BME280;9136;48.822;7.966;2022-10-15T03:04:39;99553.50;;;15.44;100.00
18022;BME280;9136;48.822;7.966;2022-10-15T03:07:26;99559.34;;;15.50;100.00
18022;BME280;9136;48.822;7.966;2022-10-15T03:10:14;99550.38;;;15.38;100.00
18022;BME280;9136;48.822;7.966;2022-10-15T03:13:05;99553.31;;;15.48;100.00
18022;BME280;9136;48.822;7.966;2022-10-15T03:15:53;99570.22;;;15.45;100.00
18022;BME280;9136;48.822;7.966;2022-10-15T03:18:40;99541.69;;;15.36;100.00
18022;BME280;9136;48.822;7.966;2022-10-15T03:21:28;99576.72;;;15.54;100.00
18022;BME280;9136;48.822;7.966;2022-10-15T03:24:16;99554.44;;;15.43;100.00
18022;BME280;9136;48.822;7.966;2022-10-15T03:27:04;99549.53;;;15.37;100.00
18022;BME280;9136;48.822;7.966;2022-10-15T03:29:53;99590.06;;;15.52;100.00
18022;BME280;9136;48.822;7.966;2022-10-15T03:32:41;99557.59;;;15.36;100.00
18022;BME280;9136;48.822;7.966;2022-10-15T03:35:29;99555.22;;;15.31;100.00
18022;BME280;9136;48.822;7.966;2022-10-15T03:38:17;99560.88;;;15.39;100.00
18022;BME280;9136;48.822;7.966;2022-10-15T03:41:05;99581.47;;;15.49;100.00
18022;BME280;9136;48.822;7.966;2022-10-15T03:43:52;99579.88;;;15.46;100.00
18022;BME280;9136;48.822;7.966;2022-10-15T03:46:42;99579.03;;;15.45;100.00
18022;BME280;9136;48.822;7.966;2022-10-15T03:49:29;99565.69;;;15.33;100.00
18022;BME280;9136;48.822;7.966;2022-10-15T03:52:17;99577.31;;;15.44;100.00
18022;BME280;9136;48.822;7.966;2022-10-15T03:55:06;99579.19;;;15.42;100.00
18022;BME280;9136;48.822;7.966;2022-10-15T03:57:57;99577.22;;;15.46;100.00
18022;BME280;9136;48.822;7.966;2022-10-15T04:00:44;99584.38;;;15.44;100.00
18022;BME280;9136;48.822;7.966;2022-10-15T04:03:34;99572.31;;;15.40;100.00
18022;BME280;9136;48.822;7.966;2022-10-15T04:06:21;99576.09;;;15.36;100.00
18022;BME280;9136;48.822;7.966;2022-10-15T04:09:09;99593.56;;;15.53;100.00
18022;BME280;9136;48.822;7.966;2022-10-15T04:11:57;99577.50;;;15.41;100.00
18022;BME280;9136;48.822;7.966;2022-10-15T04:14:45;99585.81;;;15.50;100.00
18022;BME280;9136;48.822;7.966;2022-10-15T04:17:32;99584.97;;;15.49;100.00
18022;BME280;9136;48.822;7.966;2022-10-15T04:20:22;99598.31;;;15.48;100.00
18022;BME280;9136;48.822;7.966;2022-10-15T04:23:09;99593.38;;;15.41;100.00
18022;BME280;9136;48.822;7.966;2022-10-15T04:25:57;99573.53;;;15.34;100.00
18022;BME280;9136;48.822;7.966;2022-10-15T04:28:46;99612.47;;;15.46;100.00
18022;BME280;9136;48.822;7.966;2022-10-15T04:31:34;99573.94;;;15.28;100.00
18022;BME280;9136;48.822;7.966;2022-10-15T04:34:22;99604.44;;;15.34;100.00
18022;BME280;9136;48.822;7.966;2022-10-15T04:37:12;99622.69;;;15.38;100.00
18022;BME280;9136;48.822;7.966;2022-10-15T04:40:00;99612.47;;;15.32;100.00
18022;BME280;9136;48.822;7.966;2022-10-15T04:42:48;99612.19;;;15.23;100.00
18022;BME280;9136;48.822;7.966;2022-10-15T04:45:36;99603.31;;;15.24;100.00
18022;BME280;9136;48.822;7.966;2022-10-15T04:48:24;99624.31;;;15.27;100.00
18022;BME280;9136;48.822;7.966;2022-10-15T04:51:14;99628.44;;;15.31;100.00
18022;BME280;9136;48.822;7.966;2022-10-15T04:54:04;99615.41;;;15.28;100.00
18022;BME280;9136;48.822;7.966;2022-10-15T04:56:51;99629.13;;;15.20;100.00
18022;BME280;9136;48.822;7.966;2022-10-15T04:59:39;99641.88;;;15.28;100.00
18022;BME280;9136;48.822;7.966;2022-10-15T05:02:27;99619.94;;;15.11;100.00
18022;BME280;9136;48.822;7.966;2022-10-15T05:05:15;99639.03;;;15.16;100.00
18022;BME280;9136;48.822;7.966;2022-10-15T05:08:03;99642.44;;;15.18;100.00
18022;BME280;9136;48.822;7.966;2022-10-15T05:10:52;99609.72;;;15.05;100.00
18022;BME280;9136;48.822;7.966;2022-10-15T05:13:41;99629.88;;;15.08;100.00
18022;BME280;9136;48.822;7.966;2022-10-15T05:16:29;99650.19;;;15.22;100.00
18022;BME280;9136;48.822;7.966;2022-10-15T05:19:17;99646.88;;;15.18;100.00
18022;BME280;9136;48.822;7.966;2022-10-15T05:22:04;99630.63;;;15.10;100.00
18022;BME280;9136;48.822;7.966;2022-10-15T05:24:52;99644.50;;;15.13;100.00
18022;BME280;9136;48.822;7.966;2022-10-15T05:27:41;99646.19;;;15.14;100.00
18022;BME280;9136;48.822;7.966;2022-10-15T05:30:29;99660.88;;;15.20;100.00
18022;BME280;9136;48.822;7.966;2022-10-15T05:33:18;99667.19;;;15.17;100.00
18022;BME280;9136;48.822;7.966;2022-10-15T05:36:11;99666.16;;;15.20;100.00
18022;BME280;9136;48.822;7.966;2022-10-15T05:39:00;99655.19;;;15.12;100.00
18022;BME280;9136;48.822;7.966;2022-10-15T05:41:48;99657.34;;;15.05;100.00
18022;BME280;9136;48.822;7.966;2022-10-15T05:44:37;99665.84;;;15.10;100.00
18022;BME280;9136;48.822;7.966;2022-10-15T05:47:25;99686.16;;;15.10;100.00
18022;BME280;9136;48.822;7.966;2022-10-15T05:50:13;99657.81;;;14.98;100.00
18022;BME280;9136;48.822;7.966;2022-10-15T05:53:01;99656.97;;;14.97;100.00
18022;BME280;9136;48.822;7.966;2022-10-15T05:55:53;99662.41;;;14.94;100.00
18022;BME280;9136;48.822;7.966;2022-10-15T05:58:46;99687.38;;;15.04;100.00
18022;BME280;9136;48.822;7.966;2022-10-15T06:01:35;99669.16;;;15.00;100.00
18022;BME280;9136;48.822;7.966;2022-10-15T06:04:23;99671.78;;;15.00;100.00
18022;BME280;9136;48.822;7.966;2022-10-15T06:07:11;99682.28;;;15.01;100.00
18022;BME280;9136;48.822;7.966;2022-10-15T06:09:58;99674.00;;;15.07;100.00
18022;BME280;9136;48.822;7.966;2022-10-15T06:12:48;99678.25;;;15.10;100.00
18022;BME280;9136;48.822;7.966;2022-10-15T06:15:38;99703.00;;;15.23;100.00
18022;BME280;9136;48.822;7.966;2022-10-15T06:18:28;99689.38;;;15.15;100.00
18022;BME280;9136;48.822;7.966;2022-10-15T06:21:16;99707.44;;;15.23;100.00
18022;BME280;9136;48.822;7.966;2022-10-15T06:24:04;99693.91;;;15.13;100.00
18022;BME280;9136;48.822;7.966;2022-10-15T06:26:52;99706.13;;;15.15;100.00
18022;BME280;9136;48.822;7.966;2022-10-15T06:29:40;99705.25;;;15.15;100.00
18022;BME280;9136;48.822;7.966;2022-10-15T06:32:27;99700.34;;;15.09;100.00
18022;BME280;9136;48.822;7.966;2022-10-15T06:35:18;99698.66;;;15.08;100.00
18022;BME280;9136;48.822;7.966;2022-10-15T06:38:06;99709.69;;;15.14;100.00
18022;BME280;9136;48.822;7.966;2022-10-15T06:40:54;99724.38;;;15.20;100.00
18022;BME280;9136;48.822;7.966;2022-10-15T06:43:42;99713.28;;;15.13;100.00
18022;BME280;9136;48.822;7.966;2022-10-15T06:46:30;99727.94;;;15.19;100.00
18022;BME280;9136;48.822;7.966;2022-10-15T06:49:18;99701.56;;;15.03;100.00
18022;BME280;9136;48.822;7.966;2022-10-15T06:52:07;99722.00;;;15.15;100.00
18022;BME280;9136;48.822;7.966;2022-10-15T06:54:54;99732.31;;;15.20;100.00
18022;BME280;9136;48.822;7.966;2022-10-15T06:57:42;99728.16;;;15.16;100.00
18022;BME280;9136;48.822;7.966;2022-10-15T07:00:30;99708.63;;;15.03;100.00
18022;BME280;9136;48.822;7.966;2022-10-15T07:03:18;99734.28;;;15.16;100.00
18022;BME280;9136;48.822;7.966;2022-10-15T07:06:07;99722.91;;;15.14;100.00
18022;BME280;9136;48.822;7.966;2022-10-15T07:08:56;99726.34;;;15.16;100.00
18022;BME280;9136;48.822;7.966;2022-10-15T07:11:44;99717.16;;;15.08;100.00
18022;BME280;9136;48.822;7.966;2022-10-15T07:14:32;99736.66;;;15.21;100.00
18022;BME280;9136;48.822;7.966;2022-10-15T07:17:20;99725.75;;;15.11;100.00
18022;BME280;9136;48.822;7.966;2022-10-15T07:20:08;99730.50;;;15.21;100.00
18022;BME280;9136;48.822;7.966;2022-10-15T07:22:56;99738.19;;;15.25;100.00
18022;BME280;9136;48.822;7.966;2022-10-15T07:25:46;99734.22;;;15.32;100.00
18022;BME280;9136;48.822;7.966;2022-10-15T07:28:34;99742.06;;;15.34;100.00
18022;BME280;9136;48.822;7.966;2022-10-15T07:31:21;99738.50;;;15.35;100.00
18022;BME280;9136;48.822;7.966;2022-10-15T07:34:09;99731.00;;;15.41;100.00
18022;BME280;9136;48.822;7.966;2022-10-15T07:36:57;99730.25;;;15.39;100.00
18022;BME280;9136;48.822;7.966;2022-10-15T07:39:45;99720.72;;;15.37;100.00
18022;BME280;9136;48.822;7.966;2022-10-15T07:42:34;99753.53;;;15.49;100.00
18022;BME280;9136;48.822;7.966;2022-10-15T07:45:22;99740.66;;;15.42;100.00
18022;BME280;9136;48.822;7.966;2022-10-15T07:48:10;99719.97;;;15.35;100.00
18022;BME280;9136;48.822;7.966;2022-10-15T07:50:59;99722.50;;;15.36;100.00
18022;BME280;9136;48.822;7.966;2022-10-15T07:53:47;99730.91;;;15.43;100.00
18022;BME280;9136;48.822;7.966;2022-10-15T07:56:35;99735.00;;;15.49;100.00
18022;BME280;9136;48.822;7.966;2022-10-15T07:59:24;99735.75;;;15.51;100.00
18022;BME280;9136;48.822;7.966;2022-10-15T08:02:14;99742.63;;;15.53;100.00
18022;BME280;9136;48.822;7.966;2022-10-15T08:05:02;99751.78;;;15.63;100.00
18022;BME280;9136;48.822;7.966;2022-10-15T08:07:49;99750.00;;;15.64;100.00
18022;BME280;9136;48.822;7.966;2022-10-15T08:10:37;99738.19;;;15.54;100.00
18022;BME280;9136;48.822;7.966;2022-10-15T08:13:25;99756.59;;;15.71;100.00
18022;BME280;9136;48.822;7.966;2022-10-15T08:16:15;99752.34;;;15.68;100.00
18022;BME280;9136;48.822;7.966;2022-10-15T08:19:04;99752.16;;;15.71;100.00
18022;BME280;9136;48.822;7.966;2022-10-15T08:21:52;99751.41;;;15.69;100.00
18022;BME280;9136;48.822;7.966;2022-10-15T08:24:40;99763.22;;;15.78;100.00
18022;BME280;9136;48.822;7.966;2022-10-15T08:27:28;99771.91;;;15.80;100.00
18022;BME280;9136;48.822;7.966;2022-10-15T08:30:16;99776.56;;;15.77;100.00
18022;BME280;9136;48.822;7.966;2022-10-15T08:55:45;99801.63;;;15.99;100.00
18022;BME280;9136;48.822;7.966;2022-10-15T08:58:44;99796.50;;;16.11;100.00
18022;BME280;9136;48.822;7.966;2022-10-15T09:01:37;99795.66;;;16.10;100.00
18022;BME280;9136;48.822;7.966;2022-10-15T09:04:30;99799.28;;;16.23;100.00
18022;BME280;9136;48.822;7.966;2022-10-15T09:07:25;99789.63;;;16.22;100.00
18022;BME280;9136;48.822;7.966;2022-10-15T09:10:25;99783.38;;;16.23;100.00
18022;BME280;9136;48.822;7.966;2022-10-15T09:13:19;99795.63;;;16.39;100.00
18022;BME280;9136;48.822;7.966;2022-10-15T09:16:13;99798.19;;;16.40;100.00
18022;BME280;9136;48.822;7.966;2022-10-15T09:19:03;99783.16;;;16.41;100.00
18022;BME280;9136;48.822;7.966;2022-10-15T09:21:53;99793.75;;;16.41;100.00
18022;BME280;9136;48.822;7.966;2022-10-15T09:24:41;99780.13;;;16.33;100.00
18022;BME280;9136;48.822;7.966;2022-10-15T09:27:32;99785.53;;;16.31;100.00
18022;BME280;9136;48.822;7.966;2022-10-15T09:30:27;99797.84;;;16.32;100.00
18022;BME280;9136;48.822;7.966;2022-10-15T09:33:28;99797.84;;;16.18;100.00
18022;BME280;9136;48.822;7.966;2022-10-15T09:36:31;99793.88;;;16.25;100.00
18022;BME280;9136;48.822;7.966;2022-10-15T09:39:45;99784.59;;;16.32;100.00
18022;BME280;9136;48.822;7.966;2022-10-15T09:42:37;99796.47;;;16.39;100.00
18022;BME280;9136;48.822;7.966;2022-10-15T09:45:27;99790.63;;;16.34;100.00
18022;BME280;9136;48.822;7.966;2022-10-15T09:48:17;99781.16;;;16.30;100.00
18022;BME280;9136;48.822;7.966;2022-10-15T09:51:11;99799.00;;;16.69;100.00
18022;BME280;9136;48.822;7.966;2022-10-15T09:54:11;99796.72;;;16.77;100.00
18022;BME280;9136;48.822;7.966;2022-10-15T09:57:07;99806.84;;;16.85;100.00
18022;BME280;9136;48.822;7.966;2022-10-15T09:59:57;99823.69;;;16.84;100.00
18022;BME280;9136;48.822;7.966;2022-10-15T10:03:04;99780.25;;;16.58;100.00
18022;BME280;9136;48.822;7.966;2022-10-15T10:06:02;99803.09;;;16.60;100.00
18022;BME280;9136;48.822;7.966;2022-10-15T10:08:52;99805.34;;;16.81;100.00
18022;BME280;9136;48.822;7.966;2022-10-15T10:11:46;99797.22;;;16.70;100.00
18022;BME280;9136;48.822;7.966;2022-10-15T10:14:39;99815.94;;;16.81;100.00
18022;BME280;9136;48.822;7.966;2022-10-15T10:17:30;99805.88;;;16.86;100.00
18022;BME280;9136;48.822;7.966;2022-10-15T10:20:23;99836.31;;;16.80;100.00
18022;BME280;9136;48.822;7.966;2022-10-15T10:23:20;99821.63;;;16.75;100.00
18022;BME280;9136;48.822;7.966;2022-10-15T10:26:10;99800.22;;;16.64;100.00
18022;BME280;9136;48.822;7.966;2022-10-15T10:29:01;99819.88;;;16.88;100.00
18022;BME280;9136;48.822;7.966;2022-10-15T10:31:52;99797.88;;;16.73;100.00
18022;BME280;9136;48.822;7.966;2022-10-15T10:34:43;99800.41;;;16.75;100.00
18022;BME280;9136;48.822;7.966;2022-10-15T10:37:41;99792.19;;;16.79;100.00
18022;BME280;9136;48.822;7.966;2022-10-15T10:40:33;99798.66;;;16.88;100.00
18022;BME280;9136;48.822;7.966;2022-10-15T10:43:24;99797.06;;;16.85;100.00
18022;BME280;9136;48.822;7.966;2022-10-15T10:46:17;99827.22;;;17.11;100.00
18022;BME280;9136;48.822;7.966;2022-10-15T10:49:06;99798.66;;;16.88;100.00
18022;BME280;9136;48.822;7.966;2022-10-15T10:51:55;99808.88;;;16.94;100.00
18022;BME280;9136;48.822;7.966;2022-10-15T10:54:45;99795.25;;;16.86;100.00
18022;BME280;9136;48.822;7.966;2022-10-15T10:57:43;99805.34;;;16.81;100.00
18022;BME280;9136;48.822;7.966;2022-10-15T11:00:37;99799.56;;;16.74;100.00
18022;BME280;9136;48.822;7.966;2022-10-15T11:03:31;99824.28;;;16.89;100.00
18022;BME280;9136;48.822;7.966;2022-10-15T11:06:25;99812.75;;;16.62;100.00
18022;BME280;9136;48.822;7.966;2022-10-15T11:09:39;99808.25;;;16.35;100.00
18022;BME280;9136;48.822;7.966;2022-10-15T11:12:49;99814.69;;;16.31;100.00
18022;BME280;9136;48.822;7.966;2022-10-15T11:15:45;99809.41;;;16.31;100.00
18022;BME280;9136;48.822;7.966;2022-10-15T11:18:55;99794.34;;;16.31;100.00
18022;BME280;9136;48.822;7.966;2022-10-15T11:21:56;99809.94;;;16.50;100.00
18022;BME280;9136;48.822;7.966;2022-10-15T11:24:53;99817.31;;;16.45;100.00
18022;BME280;9136;48.822;7.966;2022-10-15T11:27:55;99788.19;;;16.31;100.00
18022;BME280;9136;48.822;7.966;2022-10-15T11:30:50;99788.19;;;16.31;100.00
18022;BME280;9136;48.822;7.966;2022-10-15T11:33:51;99785.44;;;16.33;100.00
18022;BME280;9136;48.822;7.966;2022-10-15T11:36:57;99820.34;;;16.53;100.00
18022;BME280;9136;48.822;7.966;2022-10-15T11:40:11;99801.97;;;16.50;100.00
18022;BME280;9136;48.822;7.966;2022-10-15T11:43:13;99807.97;;;16.25;100.00
18022;BME280;9136;48.822;7.966;2022-10-15T11:46:07;99814.50;;;16.20;100.00
18022;BME280;9136;48.822;7.966;2022-10-15T11:49:13;99817.66;;;16.12;100.00
18022;BME280;9136;48.822;7.966;2022-10-15T11:52:15;99796.44;;;15.98;100.00
18022;BME280;9136;48.822;7.966;2022-10-15T11:55:13;99803.13;;;16.18;100.00
18022;BME280;9136;48.822;7.966;2022-10-15T11:58:12;99790.19;;;16.13;100.00
18022;BME280;9136;48.822;7.966;2022-10-15T12:01:06;99791.31;;;16.23;100.00
18022;BME280;9136;48.822;7.966;2022-10-15T12:03:56;99789.41;;;16.25;100.00
18022;BME280;9136;48.822;7.966;2022-10-15T12:06:49;99790.63;;;16.34;100.00
18022;BME280;9136;48.822;7.966;2022-10-15T12:09:40;99801.41;;;16.45;100.00
18022;BME280;9136;48.822;7.966;2022-10-15T12:12:36;99793.75;;;16.41;100.00
18022;BME280;9136;48.822;7.966;2022-10-15T12:15:32;99780.69;;;16.38;100.00
18022;BME280;9136;48.822;7.966;2022-10-15T12:18:28;99790.06;;;16.29;100.00
18022;BME280;9136;48.822;7.966;2022-10-15T12:21:38;99782.69;;;16.34;100.00
18022;BME280;9136;48.822;7.966;2022-10-15T12:24:49;99788.63;;;16.52;100.00
18022;BME280;9136;48.822;7.966;2022-10-15T12:27:41;99772.38;;;16.29;100.00
18022;BME280;9136;48.822;7.966;2022-10-15T12:30:31;99784.19;;;16.38;100.00
18022;BME280;9136;48.822;7.966;2022-10-15T12:33:25;99756.38;;;16.31;100.00
18022;BME280;9136;48.822;7.966;2022-10-15T12:36:22;99769.06;;;16.26;100.00
18022;BME280;9136;48.822;7.966;2022-10-15T12:39:22;99764.06;;;16.21;100.00
18022;BME280;9136;48.822;7.966;2022-10-15T12:42:22;99778.16;;;16.22;100.00
18022;BME280;9136;48.822;7.966;2022-10-15T12:45:20;99758.66;;;16.09;100.00
18022;BME280;9136;48.822;7.966;2022-10-15T12:48:18;99756.97;;;16.08;100.00
18022;BME280;9136;48.822;7.966;2022-10-15T12:51:36;99763.50;;;16.16;100.00
18022;BME280;9136;48.822;7.966;2022-10-15T12:54:35;99765.41;;;16.14;100.00
18022;BME280;9136;48.822;7.966;2022-10-15T12:57:52;99772.19;;;16.18;100.00
18022;BME280;9136;48.822;7.966;2022-10-15T13:00:43;99740.31;;;16.06;100.00
18022;BME280;9136;48.822;7.966;2022-10-15T13:03:37;99751.84;;;16.19;100.00
18022;BME280;9136;48.822;7.966;2022-10-15T13:06:30;99764.63;;;16.26;100.00
18022;BME280;9136;48.822;7.966;2022-10-15T13:12:52;99745.03;;;16.15;100.00
18022;BME280;9136;48.822;7.966;2022-10-15T13:15:49;99729.81;;;16.04;100.00
18022;BME280;9136;48.822;7.966;2022-10-15T13:18:40;99749.78;;;16.10;100.00
18022;BME280;9136;48.822;7.966;2022-10-15T13:21:47;99742.88;;;16.07;100.00
18022;BME280;9136;48.822;7.966;2022-10-15T13:24:40;99732.66;;;16.01;100.00
18022;BME280;9136;48.822;7.966;2022-10-15T13:27:33;99732.66;;;16.01;100.00
18022;BME280;9136;48.822;7.966;2022-10-15T13:30:22;99746.84;;;16.14;100.00
18022;BME280;9136;48.822;7.966;2022-10-15T13:33:14;99717.88;;;16.11;100.00
18022;BME280;9136;48.822;7.966;2022-10-15T13:36:33;99736.69;;;16.35;100.00
18022;BME280;9136;48.822;7.966;2022-10-15T13:39:27;99722.63;;;16.47;100.00
18022;BME280;9136;48.822;7.966;2022-10-15T13:43:00;99715.63;;;16.46;100.00
18022;BME280;9136;48.822;7.966;2022-10-15T13:45:47;99731.84;;;16.69;100.00
18022;BME280;9136;48.822;7.966;2022-10-15T13:48:40;99735.31;;;16.83;100.00
18022;BME280;9136;48.822;7.966;2022-10-15T13:51:36;99716.84;;;16.82;100.00
18022;BME280;9136;48.822;7.966;2022-10-15T13:54:28;99728.13;;;16.98;100.00
18022;BME280;9136;48.822;7.966;2022-10-15T13:57:17;99726.34;;;16.99;100.00
18022;BME280;9136;48.822;7.966;2022-10-15T14:00:06;99716.75;;;16.96;100.00
18022;BME280;9136;48.822;7.966;2022-10-15T14:03:07;99709.13;;;16.92;100.00
18022;BME280;9136;48.822;7.966;2022-10-15T14:06:08;99728.28;;;17.09;100.00
18022;BME280;9136;48.822;7.966;2022-10-15T14:08:59;99722.00;;;17.23;100.00
18022;BME280;9136;48.822;7.966;2022-10-15T14:11:48;99725.41;;;17.25;100.00
18022;BME280;9136;48.822;7.966;2022-10-15T14:14:38;99724.03;;;17.20;100.00
18022;BME280;9136;48.822;7.966;2022-10-15T14:17:27;99719.25;;;17.12;100.00
18022;BME280;9136;48.822;7.966;2022-10-15T14:20:17;99729.13;;;17.10;100.00
18022;BME280;9136;48.822;7.966;2022-10-15T14:23:14;99720.81;;;17.02;100.00
18022;BME280;9136;48.822;7.966;2022-10-15T14:26:04;99737.19;;;17.21;100.00
18022;BME280;9136;48.822;7.966;2022-10-15T14:28:52;99725.19;;;17.15;100.00
18022;BME280;9136;48.822;7.966;2022-10-15T14:31:46;99721.56;;;17.16;100.00
18022;BME280;9136;48.822;7.966;2022-10-15T14:34:37;99714.22;;;17.07;100.00
18022;BME280;9136;48.822;7.966;2022-10-15T14:37:39;99721.50;;;17.18;100.00
18022;BME280;9136;48.822;7.966;2022-10-15T14:40:28;99730.19;;;17.20;100.00
18022;BME280;9136;48.822;7.966;2022-10-15T14:43:17;99743.03;;;17.26;100.00
18022;BME280;9136;48.822;7.966;2022-10-15T14:46:06;99748.44;;;17.25;100.00
18022;BME280;9136;48.822;7.966;2022-10-15T14:48:56;99735.69;;;17.17;100.00
18022;BME280;9136;48.822;7.966;2022-10-15T14:51:44;99748.66;;;17.22;100.00
18022;BME280;9136;48.822;7.966;2022-10-15T14:54:35;99733.56;;;17.09;100.00
18022;BME280;9136;48.822;7.966;2022-10-15T14:57:26;99718.78;;;17.05;100.00
18022;BME280;9136;48.822;7.966;2022-10-15T15:00:23;99739.00;;;17.21;100.00
18022;BME280;9136;48.822;7.966;2022-10-15T15:03:18;99722.00;;;17.23;100.00
18022;BME280;9136;48.822;7.966;2022-10-15T15:06:07;99730.19;;;17.20;100.00
18022;BME280;9136;48.822;7.966;2022-10-15T15:08:55;99728.50;;;17.19;100.00
18022;BME280;9136;48.822;7.966;2022-10-15T15:11:43;99739.97;;;17.20;100.00
18022;BME280;9136;48.822;7.966;2022-10-15T15:14:31;99741.97;;;17.16;100.00
18022;BME280;9136;48.822;7.966;2022-10-15T15:17:23;99737.25;;;17.07;100.00
18022;BME280;9136;48.822;7.966;2022-10-15T15:20:11;99730.78;;;16.98;100.00
18022;BME280;9136;48.822;7.966;2022-10-15T15:22:59;99721.09;;;16.97;100.00
18022;BME280;9136;48.822;7.966;2022-10-15T15:25:47;99727.72;;;17.04;100.00
18022;BME280;9136;48.822;7.966;2022-10-15T15:28:35;99729.53;;;17.04;100.00
18022;BME280;9136;48.822;7.966;2022-10-15T15:31:23;99737.41;;;17.18;100.00
18022;BME280;9136;48.822;7.966;2022-10-15T15:34:12;99721.06;;;17.11;100.00
18022;BME280;9136;48.822;7.966;2022-10-15T15:37:00;99750.16;;;17.26;100.00